Time;durP1;ratioP1;P1;durP2;ratioP2;P2;SDS_P1;SDS_P2;PMS_P1;PMS_P2;Temp;Humidity;BMP_temperature;BMP_pressure;BME280_temperature;BME280_humidity;BME280_pressure;Samples;Min_cycle;Max_cycle;Signal;HPM_P1;HPM_P2
2022/10/18 00:01:55;;;;;;;16.15;13.80;;;13.90;99.90;;;;;;5056175;28;20508;-77
2022/10/18 00:04:21;;;;;;;18.13;13.77;;;13.90;99.90;;;;;;5054555;28;20025;-77
2022/10/18 00:06:47;;;;;;;14.75;13.25;;;13.80;99.90;;;;;;5054105;28;20045;-76
2022/10/18 00:09:12;;;;;;;15.55;13.88;;;13.80;99.90;;;;;;5054337;28;20480;-76
2022/10/18 00:11:38;;;;;;;14.07;12.68;;;13.80;99.90;;;;;;5053741;28;20032;-77
2022/10/18 00:14:04;;;;;;;16.27;14.63;;;13.80;99.90;;;;;;5054108;28;20029;-77
2022/10/18 00:16:30;;;;;;;14.80;13.45;;;13.70;99.90;;;;;;5053469;28;20029;-76
2022/10/18 00:18:55;;;;;;;14.07;12.77;;;13.70;99.90;;;;;;5053150;28;20044;-76
2022/10/18 00:21:23;;;;;;;13.50;12.20;;;13.70;99.90;;;;;;5053447;28;20029;-76
2022/10/18 00:23:50;;;;;;;14.05;12.75;;;13.70;99.90;;;;;;5053694;28;20381;-75
2022/10/18 00:26:20;;;;;;;15.00;13.43;;;13.70;99.90;;;;;;5053231;28;20074;-77
2022/10/18 00:28:50;;;;;;;16.48;14.45;;;13.60;99.90;;;;;;5053638;28;20057;-77
2022/10/18 00:31:21;;;;;;;20.80;14.00;;;13.60;99.90;;;;;;5054012;28;20099;-76
2022/10/18 00:33:50;;;;;;;13.52;12.32;;;13.60;99.90;;;;;;5053255;28;20263;-77
2022/10/18 00:36:16;;;;;;;14.40;12.38;;;13.60;99.90;;;;;;5053560;28;20473;-77
2022/10/18 00:38:43;;;;;;;12.52;11.27;;;13.50;99.90;;;;;;5053312;28;20128;-74
2022/10/18 00:41:12;;;;;;;21.65;11.23;;;13.50;99.90;;;;;;5053619;28;20029;-77
2022/10/18 00:44:02;;;;;;;21.92;9.93;;;13.50;99.90;;;;;;5053005;28;20056;-76
2022/10/18 00:46:33;;;;;;;14.98;8.85;;;13.50;99.90;;;;;;5052794;28;20074;-78
2022/10/18 00:49:03;;;;;;;24.27;8.98;;;13.40;99.90;;;;;;5053231;28;20029;-77
2022/10/18 00:51:36;;;;;;;22.60;7.82;;;13.40;99.90;;;;;;5053204;28;20048;-76
2022/10/18 00:54:01;;;;;;;25.02;7.20;;;13.30;99.90;;;;;;5052025;28;20021;-76
2022/10/18 00:56:28;;;;;;;21.88;7.60;;;13.40;99.90;;;;;;5052852;28;20377;-77
2022/10/18 00:58:53;;;;;;;28.98;7.00;;;13.40;99.90;;;;;;5052689;28;20099;-76
2022/10/18 01:01:19;;;;;;;51.60;7.13;;;13.30;99.90;;;;;;5052154;28;20072;-76
2022/10/18 01:03:45;;;;;;;19.83;6.05;;;13.20;99.90;;;;;;5052581;28;20526;-76
2022/10/18 01:06:10;;;;;;;17.80;6.97;;;13.20;99.90;;;;;;5052521;28;20052;-77
2022/10/18 01:09:07;;;;;;;18.00;6.95;;;13.20;99.90;;;;;;5051711;28;20106;-75
2022/10/18 01:12:06;;;;;;;18.73;6.50;;;13.20;99.90;;;;;;5041409;28;20114;-77
2022/10/18 01:14:55;;;;;;;10.10;6.43;;;13.10;99.90;;;;;;5052168;28;20029;-75
2022/10/18 01:17:39;;;;;;;7.05;6.40;;;13.10;99.90;;;;;;5053015;28;20132;-75
2022/10/18 01:20:13;;;;;;;14.40;7.50;;;13.10;99.90;;;;;;5053167;28;20043;-76
2022/10/18 01:22:44;;;;;;;15.00;6.93;;;13.00;99.90;;;;;;5051676;28;20024;-75
2022/10/18 01:25:42;;;;;;;20.05;7.15;;;13.00;99.90;;;;;;5052647;28;20416;-76
2022/10/18 01:28:33;;;;;;;8.50;7.63;;;13.00;99.90;;;;;;5052177;28;20028;-75
2022/10/18 01:31:04;;;;;;;11.85;7.80;;;12.90;99.90;;;;;;5052066;28;20163;-75
2022/10/18 01:33:32;;;;;;;14.30;7.60;;;12.90;99.90;;;;;;5051950;28;20025;-75
2022/10/18 01:36:06;;;;;;;15.55;6.97;;;12.90;99.90;;;;;;5051942;28;20040;-75
2022/10/18 01:38:33;;;;;;;10.60;6.97;;;12.80;99.90;;;;;;5052268;28;20120;-75
2022/10/18 01:41:01;;;;;;;10.55;6.88;;;12.80;99.90;;;;;;5052705;28;20067;-76
2022/10/18 01:43:28;;;;;;;10.88;6.30;;;12.70;99.90;;;;;;5051301;28;20462;-75
2022/10/18 01:45:55;;;;;;;6.57;6.03;;;12.70;99.90;;;;;;5052273;28;20036;-75
2022/10/18 01:48:21;;;;;;;6.35;5.95;;;12.70;99.90;;;;;;5052435;28;20031;-75
2022/10/18 01:50:47;;;;;;;10.95;6.03;;;12.60;99.90;;;;;;5051312;28;20029;-76
2022/10/18 01:53:31;;;;;;;28.88;7.70;;;12.60;99.90;;;;;;5052575;28;20091;-76
2022/10/18 01:56:09;;;;;;;8.13;7.43;;;12.60;99.90;;;;;;5052431;28;20068;-76
2022/10/18 01:58:55;;;;;;;8.80;8.10;;;12.60;99.90;;;;;;5051019;28;20033;-76
2022/10/18 02:01:27;;;;;;;8.35;7.55;;;12.60;99.90;;;;;;5052504;28;20032;-77
2022/10/18 02:03:56;;;;;;;11.02;7.88;;;12.60;99.90;;;;;;5051730;28;20025;-76
2022/10/18 02:06:28;;;;;;;8.23;7.43;;;12.50;99.90;;;;;;5052583;28;20074;-76
2022/10/18 02:09:11;;;;;;;8.85;7.93;;;12.60;99.90;;;;;;5053344;28;20108;-76
2022/10/18 02:11:38;;;;;;;14.23;8.85;;;12.50;99.90;;;;;;5060383;28;20043;-77
2022/10/18 02:14:07;;;;;;;13.02;9.35;;;12.50;99.90;;;;;;5059367;28;20025;-77
2022/10/18 02:16:50;;;;;;;12.07;9.60;;;12.50;99.90;;;;;;5057242;28;20037;-76
2022/10/18 02:19:29;;;;;;;18.52;10.52;;;12.50;99.90;;;;;;5060914;28;20044;-77
2022/10/18 02:21:57;;;;;;;12.52;9.18;;;12.50;99.90;;;;;;5065430;28;20051;-77
2022/10/18 02:24:36;;;;;;;13.07;8.75;;;12.50;99.90;;;;;;5066102;28;20036;-77
2022/10/18 02:27:02;;;;;;;9.77;8.85;;;12.40;99.90;;;;;;5042381;28;20025;-76
2022/10/18 02:29:29;;;;;;;16.45;8.75;;;12.40;99.90;;;;;;5055453;28;20108;-75
2022/10/18 02:32:12;;;;;;;19.50;9.18;;;12.40;99.90;;;;;;5056236;28;20100;-75
2022/10/18 02:34:43;;;;;;;16.67;8.90;;;12.30;99.90;;;;;;5055813;28;20028;-75
2022/10/18 02:37:10;;;;;;;10.45;8.35;;;12.30;99.90;;;;;;5056236;28;20025;-75
2022/10/18 02:39:42;;;;;;;13.65;8.65;;;12.30;99.90;;;;;;5054811;28;20040;-75
2022/10/18 02:42:09;;;;;;;22.73;8.18;;;12.20;99.90;;;;;;5055676;28;20017;-75
2022/10/18 02:44:36;;;;;;;13.25;8.63;;;12.30;99.90;;;;;;5041814;28;20029;-75
2022/10/18 02:47:04;;;;;;;9.80;8.90;;;12.20;99.90;;;;;;5055249;28;20061;-76
2022/10/18 02:49:29;;;;;;;16.20;8.10;;;12.20;99.90;;;;;;5055296;28;20087;-75
2022/10/18 02:51:55;;;;;;;17.33;9.95;;;12.20;99.90;;;;;;5055600;28;20464;-76
2022/10/18 02:54:21;;;;;;;9.95;9.02;;;12.20;99.90;;;;;;5054613;28;20025;-76
2022/10/18 02:56:46;;;;;;;15.73;8.23;;;12.20;99.90;;;;;;5055102;28;20028;-76
2022/10/18 02:59:12;;;;;;;20.35;8.60;;;12.10;99.90;;;;;;5054935;28;20041;-75
2022/10/18 03:01:38;;;;;;;11.93;8.48;;;12.10;99.90;;;;;;5054600;28;20098;-74
2022/10/18 03:04:04;;;;;;;9.77;8.63;;;12.10;99.90;;;;;;5055586;28;20049;-76
2022/10/18 03:06:30;;;;;;;14.60;8.82;;;12.10;99.90;;;;;;5054560;28;20469;-77
2022/10/18 03:08:55;;;;;;;9.45;8.60;;;12.00;99.90;;;;;;5054780;28;20461;-77
2022/10/18 03:11:21;;;;;;;12.63;8.45;;;12.10;99.90;;;;;;5054784;28;20048;-77
2022/10/18 03:13:49;;;;;;;9.73;8.88;;;12.00;99.90;;;;;;5054829;28;20025;-76
2022/10/18 03:16:16;;;;;;;8.20;7.50;;;12.00;99.90;;;;;;5054990;28;20033;-76
2022/10/18 03:18:41;;;;;;;8.77;7.97;;;11.90;99.90;;;;;;5054792;28;20107;-76
2022/10/18 03:21:08;;;;;;;8.68;7.88;;;11.90;99.90;;;;;;5055156;28;20025;-77
2022/10/18 03:23:34;;;;;;;13.77;7.25;;;11.90;99.90;;;;;;5054445;28;20028;-77
2022/10/18 03:26:00;;;;;;;9.45;7.22;;;11.90;99.90;;;;;;5054875;28;20025;-77
2022/10/18 03:28:26;;;;;;;10.95;7.45;;;11.80;99.90;;;;;;5054204;28;20062;-77
2022/10/18 03:30:51;;;;;;;9.73;6.38;;;11.80;99.90;;;;;;5055316;28;20106;-76
2022/10/18 03:33:17;;;;;;;6.70;6.00;;;11.80;99.90;;;;;;5054945;28;20029;-77
2022/10/18 03:35:43;;;;;;;19.60;6.40;;;11.80;99.90;;;;;;5053799;28;20028;-77
2022/10/18 03:38:08;;;;;;;8.38;5.95;;;11.70;99.90;;;;;;5055072;28;20108;-77
2022/10/18 03:40:34;;;;;;;6.38;5.88;;;11.80;99.90;;;;;;5054249;28;20031;-76
2022/10/18 03:42:59;;;;;;;7.13;5.88;;;11.70;99.90;;;;;;5054586;28;20080;-77
2022/10/18 03:45:25;;;;;;;16.58;5.90;;;11.70;99.90;;;;;;5054653;28;20024;-75
2022/10/18 03:47:50;;;;;;;7.38;6.75;;;11.60;99.90;;;;;;5054856;28;20033;-76
2022/10/18 03:50:16;;;;;;;9.43;5.90;;;11.70;99.90;;;;;;5054416;28;20029;-75
2022/10/18 03:52:41;;;;;;;55.03;5.82;;;11.50;99.90;;;;;;5054261;28;20028;-75
2022/10/18 03:55:07;;;;;;;32.83;6.15;;;11.50;99.90;;;;;;5054691;28;20035;-76
2022/10/18 03:57:33;;;;;;;9.88;6.30;;;11.50;99.90;;;;;;5053394;28;20047;-75
2022/10/18 03:59:58;;;;;;;6.93;6.32;;;11.50;99.90;;;;;;5054619;28;20564;-76
2022/10/18 04:02:24;;;;;;;9.68;6.50;;;11.50;99.90;;;;;;5053715;28;20044;-76
2022/10/18 04:04:50;;;;;;;32.45;8.27;;;11.50;99.90;;;;;;5054512;28;20369;-76
2022/10/18 04:07:15;;;;;;;23.60;8.32;;;11.50;99.90;;;;;;5054278;28;20039;-78
2022/10/18 04:09:41;;;;;;;14.90;7.45;;;11.60;99.90;;;;;;5053992;28;20385;-75
2022/10/18 04:12:06;;;;;;;19.98;7.40;;;11.60;99.90;;;;;;5053937;28;20469;-75
2022/10/18 04:14:32;;;;;;;20.52;7.28;;;11.60;99.90;;;;;;5053900;28;20036;-76
2022/10/18 04:16:57;;;;;;;32.42;7.10;;;11.50;99.90;;;;;;5053801;28;20025;-77
2022/10/18 04:19:23;;;;;;;21.95;7.20;;;11.50;99.90;;;;;;5053239;28;20469;-77
2022/10/18 04:21:49;;;;;;;47.65;7.60;;;11.50;99.90;;;;;;5053787;28;20458;-77
2022/10/18 04:24:16;;;;;;;25.52;7.70;;;11.50;99.90;;;;;;5053493;28;20393;-78
2022/10/18 04:26:42;;;;;;;31.85;7.57;;;11.50;99.90;;;;;;5053080;28;20033;-77
2022/10/18 04:29:07;;;;;;;16.05;7.13;;;11.50;99.90;;;;;;5054056;28;20032;-77
2022/10/18 04:31:33;;;;;;;11.93;6.88;;;11.50;99.90;;;;;;5053017;28;20021;-77
2022/10/18 04:34:03;;;;;;;15.23;6.72;;;11.50;99.90;;;;;;5054734;28;20028;-76
2022/10/18 04:36:29;;;;;;;23.42;7.13;;;11.50;99.90;;;;;;5057089;28;20021;-76
2022/10/18 04:38:55;;;;;;;27.20;6.35;;;11.50;99.90;;;;;;5053902;28;20477;-76
2022/10/18 04:41:20;;;;;;;14.65;6.35;;;11.60;99.90;;;;;;5053618;28;20017;-76
2022/10/18 04:43:46;;;;;;;23.25;7.13;;;11.50;99.90;;;;;;5053683;28;20467;-75
2022/10/18 04:46:11;;;;;;;24.67;6.90;;;11.50;99.90;;;;;;5052319;28;20484;-76
2022/10/18 04:48:37;;;;;;;36.90;6.60;;;11.50;99.90;;;;;;5053910;28;20500;-76
2022/10/18 04:51:02;;;;;;;22.30;6.20;;;11.40;99.90;;;;;;5051435;28;20492;-76
2022/10/18 04:53:28;;;;;;;22.10;7.05;;;11.50;99.90;;;;;;5048331;28;20107;-76
2022/10/18 04:55:53;;;;;;;19.58;6.40;;;11.40;99.90;;;;;;5052377;28;20096;-76
2022/10/18 04:58:19;;;;;;;30.05;6.45;;;11.40;99.90;;;;;;5049920;28;20037;-76
2022/10/18 05:00:46;;;;;;;6.28;5.68;;;11.40;99.90;;;;;;5045519;28;20095;-76
2022/10/18 05:03:13;;;;;;;7.15;5.60;;;11.40;99.90;;;;;;5049582;28;20499;-76
2022/10/18 05:05:39;;;;;;;15.55;5.68;;;11.40;99.90;;;;;;5046096;28;20021;-76
2022/10/18 05:08:05;;;;;;;12.45;5.65;;;11.40;99.90;;;;;;5048789;28;20408;-76
2022/10/18 05:10:30;;;;;;;33.58;5.43;;;11.40;99.90;;;;;;5047946;28;20029;-76
2022/10/18 05:12:56;;;;;;;27.48;6.10;;;11.30;99.90;;;;;;5047133;28;20070;-75
2022/10/18 05:15:21;;;;;;;15.23;6.05;;;11.30;99.90;;;;;;5049070;28;20415;-75
2022/10/18 05:17:47;;;;;;;28.92;5.88;;;11.30;99.90;;;;;;5045307;28;20045;-75
2022/10/18 05:20:13;;;;;;;18.92;6.00;;;11.30;99.90;;;;;;5049076;28;20044;-75
2022/10/18 05:22:38;;;;;;;14.77;5.20;;;11.30;99.90;;;;;;5045605;28;20025;-74
2022/10/18 05:25:04;;;;;;;12.70;5.18;;;11.20;99.90;;;;;;5049234;28;20047;-75
2022/10/18 05:27:30;;;;;;;13.68;5.13;;;11.30;99.90;;;;;;5048149;28;20017;-76
2022/10/18 05:29:55;;;;;;;6.45;4.65;;;11.30;99.90;;;;;;5046613;28;20017;-78
2022/10/18 05:32:21;;;;;;;9.75;4.45;;;11.20;99.90;;;;;;5049158;28;20077;-77
2022/10/18 05:34:46;;;;;;;14.90;4.60;;;11.20;99.90;;;;;;5045322;28;20151;-76
2022/10/18 05:37:12;;;;;;;15.13;4.60;;;11.20;99.90;;;;;;5052052;28;20056;-75
2022/10/18 05:39:41;;;;;;;6.07;4.43;;;11.20;99.90;;;;;;5052175;28;20075;-75
2022/10/18 05:42:07;;;;;;;33.08;4.78;;;11.20;99.90;;;;;;5051632;28;20023;-75
2022/10/18 05:44:33;;;;;;;12.90;4.63;;;11.20;99.90;;;;;;5051893;28;20040;-75
2022/10/18 05:47:01;;;;;;;34.15;4.18;;;11.20;99.90;;;;;;5052215;28;20021;-76
2022/10/18 05:49:27;;;;;;;36.47;4.28;;;11.20;99.90;;;;;;5051434;28;20455;-76
2022/10/18 05:51:52;;;;;;;31.05;3.80;;;11.10;99.90;;;;;;5051771;28;20116;-76
2022/10/18 05:54:19;;;;;;;32.15;4.35;;;11.10;99.90;;;;;;5052417;28;20457;-76
2022/10/18 05:56:45;;;;;;;4.07;3.13;;;11.10;99.90;;;;;;5041907;28;20108;-75
2022/10/18 05:59:11;;;;;;;12.48;3.78;;;11.00;99.90;;;;;;5047773;28;20467;-76
2022/10/18 06:01:41;;;;;;;16.48;3.67;;;11.10;99.90;;;;;;5051257;28;20032;-76
2022/10/18 06:04:07;;;;;;;23.83;3.25;;;11.00;99.90;;;;;;5046647;28;20432;-76
2022/10/18 06:06:33;;;;;;;4.85;3.28;;;11.00;99.90;;;;;;5049513;28;20393;-76
2022/10/18 06:08:58;;;;;;;18.23;3.08;;;11.00;99.90;;;;;;5048024;28;20021;-74
2022/10/18 06:11:24;;;;;;;12.25;3.15;;;11.00;99.90;;;;;;5048699;28;20381;-75
2022/10/18 06:13:51;;;;;;;3.45;2.90;;;10.90;99.90;;;;;;5050948;28;20017;-74
2022/10/18 06:16:19;;;;;;;4.10;2.70;;;10.90;99.90;;;;;;5048653;28;20021;-77
2022/10/18 06:18:53;;;;;;;12.20;2.67;;;10.90;99.90;;;;;;5051761;28;20049;-75
2022/10/18 06:21:20;;;;;;;6.88;2.22;;;10.90;99.90;;;;;;5055511;28;20033;-75
2022/10/18 06:23:54;;;;;;;21.13;2.35;;;10.80;99.90;;;;;;5052311;28;20059;-75
2022/10/18 06:26:19;;;;;;;14.82;2.17;;;10.80;99.90;;;;;;5046530;28;20029;-75
2022/10/18 06:28:45;;;;;;;9.52;2.20;;;10.70;99.90;;;;;;5049270;28;20078;-75
2022/10/18 06:31:12;;;;;;;3.47;2.17;;;10.60;99.90;;;;;;5046422;28;20025;-75
2022/10/18 06:33:38;;;;;;;11.82;2.30;;;10.70;99.90;;;;;;5049150;28;20075;-74
2022/10/18 06:36:13;;;;;;;8.50;2.75;;;10.70;99.90;;;;;;5049230;28;20018;-74
2022/10/18 06:38:39;;;;;;;11.95;2.63;;;10.70;99.90;;;;;;5050392;28;20033;-78
2022/10/18 06:41:06;;;;;;;12.07;2.50;;;10.70;99.90;;;;;;5048816;28;20022;-77
2022/10/18 06:43:32;;;;;;;11.68;2.65;;;10.70;99.90;;;;;;5045981;28;20036;-75
2022/10/18 06:46:00;;;;;;;16.73;2.55;;;10.70;99.90;;;;;;5037851;28;20021;-76
2022/10/18 06:48:26;;;;;;;8.93;2.40;;;10.70;99.90;;;;;;5051654;28;20090;-76
2022/10/18 06:50:57;;;;;;;12.30;2.55;;;10.70;99.90;;;;;;5050384;28;20068;-76
2022/10/18 06:53:27;;;;;;;;;;;10.70;99.90;;;;;;5051386;28;20152;-76
2022/10/18 06:55:57;;;;;;;7.45;2.15;;;10.80;99.90;;;;;;5051845;28;20058;-76
2022/10/18 06:58:23;;;;;;;2.20;2.10;;;10.70;99.90;;;;;;5049967;28;20029;-76
2022/10/18 07:00:49;;;;;;;5.88;2.25;;;10.70;99.90;;;;;;5054527;28;20060;-77
2022/10/18 07:03:14;;;;;;;5.90;1.73;;;10.70;99.90;;;;;;5051147;28;20086;-77
2022/10/18 07:05:40;;;;;;;14.48;2.45;;;10.80;99.90;;;;;;5054805;28;20183;-77
2022/10/18 07:08:06;;;;;;;12.45;2.63;;;10.80;99.90;;;;;;5051356;28;20469;-78
2022/10/18 07:10:31;;;;;;;10.68;2.35;;;10.80;99.90;;;;;;5053881;28;20473;-76
2022/10/18 07:12:57;;;;;;;12.75;2.97;;;10.90;99.90;;;;;;5050190;28;20032;-76
2022/10/18 07:15:23;;;;;;;12.25;2.97;;;10.90;99.90;;;;;;5040146;28;20076;-77
2022/10/18 07:17:49;;;;;;;6.30;2.95;;;10.90;99.90;;;;;;5038020;28;20049;-76
2022/10/18 07:20:15;;;;;;;18.40;2.90;;;10.90;99.90;;;;;;5038160;28;20487;-78
2022/10/18 07:22:40;;;;;;;5.55;2.67;;;10.90;99.90;;;;;;5050932;28;20389;-75
2022/10/18 07:25:06;;;;;;;2.42;2.33;;;11.00;99.90;;;;;;5039138;28;20025;-79
2022/10/18 07:27:40;;;;;;;2.67;2.50;;;11.00;99.90;;;;;;5051401;28;20080;-79
2022/10/18 07:30:07;;;;;;;4.43;2.90;;;11.00;99.90;;;;;;5046249;28;20025;-79
2022/10/18 07:32:33;;;;;;;4.53;3.00;;;11.00;99.90;;;;;;5055733;28;20052;-76
2022/10/18 07:34:58;;;;;;;3.88;2.95;;;11.10;99.90;;;;;;5052008;28;20135;-77
2022/10/18 07:37:24;;;;;;;3.25;2.85;;;11.20;99.90;;;;;;5054761;28;20472;-78
2022/10/18 07:39:49;;;;;;;3.10;2.75;;;11.20;99.90;;;;;;5056270;28;20111;-78
2022/10/18 07:42:15;;;;;;;6.70;4.03;;;11.20;99.90;;;;;;5055594;28;20473;-77
2022/10/18 07:44:41;;;;;;;6.47;3.63;;;11.30;99.90;;;;;;5056473;28;20347;-78
2022/10/18 07:47:06;;;;;;;4.55;3.30;;;11.40;99.90;;;;;;5053884;28;20068;-78
2022/10/18 07:49:52;;;;;;;4.45;3.72;;;11.40;99.90;;;;;;5054520;28;20036;-78
2022/10/18 07:52:18;;;;;;;4.13;3.22;;;11.60;99.90;;;;;;5039737;28;20029;-79
2022/10/18 07:54:43;;;;;;;3.63;3.33;;;11.60;99.90;;;;;;5048533;28;20037;-80
2022/10/18 07:57:09;;;;;;;4.07;3.60;;;11.70;99.90;;;;;;5053711;28;20025;-79
2022/10/18 07:59:34;;;;;;;5.90;4.22;;;11.80;99.90;;;;;;5059520;28;20029;-80
2022/10/18 08:02:00;;;;;;;5.88;4.53;;;11.80;99.90;;;;;;5075590;28;20043;-79
2022/10/18 08:04:25;;;;;;;5.30;4.50;;;11.90;99.90;;;;;;5057486;28;20029;-79
2022/10/18 08:06:51;;;;;;;4.82;4.45;;;12.00;99.90;;;;;;5046793;28;20383;-79
2022/10/18 08:09:17;;;;;;;5.05;4.47;;;12.10;99.90;;;;;;5049758;28;20043;-80
2022/10/18 08:11:43;;;;;;;6.80;4.97;;;12.20;99.90;;;;;;5053659;28;20103;-79
2022/10/18 08:14:08;;;;;;;6.18;4.35;;;12.20;99.90;;;;;;5053676;28;20109;-79
2022/10/18 08:16:34;;;;;;;5.85;4.60;;;12.30;99.90;;;;;;5048952;28;20116;-79
2022/10/18 08:18:59;;;;;;;5.93;4.93;;;12.30;99.90;;;;;;5053672;28;20041;-80
2022/10/18 08:21:26;;;;;;;10.82;4.90;;;12.40;99.90;;;;;;5052606;28;20035;-80
2022/10/18 08:23:52;;;;;;;6.20;3.92;;;12.50;99.90;;;;;;5049072;28;20029;-78
2022/10/18 08:26:20;;;;;;;4.80;4.40;;;12.60;99.90;;;;;;5050960;28;20029;-80
2022/10/18 08:28:46;;;;;;;5.43;4.10;;;12.70;99.90;;;;;;5052929;28;20048;-80
2022/10/18 08:31:16;;;;;;;13.40;5.30;;;12.70;99.90;;;;;;5053712;28;20401;-78
2022/10/18 08:33:42;;;;;;;7.88;4.47;;;12.90;99.90;;;;;;5040799;28;20051;-75
2022/10/18 08:36:11;;;;;;;8.43;4.45;;;13.40;99.90;;;;;;5050561;28;20469;-75
2022/10/18 08:38:39;;;;;;;7.73;4.67;;;12.90;99.90;;;;;;5052574;28;20021;-74
2022/10/18 08:41:17;;;;;;;7.35;3.80;;;13.00;99.90;;;;;;5053822;28;20268;-74
2022/10/18 08:44:00;;;;;;;6.20;4.07;;;13.00;99.90;;;;;;5053275;28;20441;-79
2022/10/18 08:46:27;;;;;;;11.52;4.43;;;13.10;99.90;;;;;;5053834;28;20029;-78
2022/10/18 08:48:55;;;;;;;7.13;3.88;;;13.10;99.90;;;;;;5039034;28;20041;-75
2022/10/18 08:51:38;;;;;;;12.35;4.88;;;13.10;99.90;;;;;;5039223;28;20025;-79
2022/10/18 08:54:17;;;;;;;8.27;4.18;;;13.10;99.90;;;;;;5053000;28;20063;-78
2022/10/18 08:56:51;;;;;;;9.10;4.10;;;13.20;99.90;;;;;;5051226;28;20033;-80
2022/10/18 08:59:18;;;;;;;8.85;3.80;;;13.20;99.90;;;;;;5051516;28;20025;-80
2022/10/18 09:01:46;;;;;;;15.75;4.88;;;13.40;99.90;;;;;;5052109;28;20025;-80
2022/10/18 09:04:31;;;;;;;12.70;3.92;;;13.40;99.90;;;;;;5050764;28;20024;-82
2022/10/18 09:07:12;;;;;;;14.63;4.82;;;13.50;99.90;;;;;;5051081;28;20364;-80
2022/10/18 09:09:51;;;;;;;8.07;4.28;;;13.70;99.90;;;;;;5049278;28;20025;-80
2022/10/18 09:12:38;;;;;;;11.75;3.50;;;13.80;99.90;;;;;;5050753;28;20032;-79
2022/10/18 09:15:22;;;;;;;4.30;2.90;;;13.80;99.90;;;;;;5049835;28;20041;-80
2022/10/18 09:18:30;;;;;;;14.40;3.85;;;13.80;99.90;;;;;;5051790;28;20052;-77
2022/10/18 09:21:04;;;;;;;15.88;3.50;;;13.90;99.90;;;;;;5038754;28;20045;-80
2022/10/18 09:23:43;;;;;;;10.43;2.83;;;14.00;99.90;;;;;;5054571;28;20486;-80
2022/10/18 09:26:20;;;;;;;10.25;2.70;;;14.00;99.90;;;;;;5052947;28;20020;-78
2022/10/18 09:29:14;;;;;;;8.75;2.30;;;14.10;99.90;;;;;;5051400;28;20025;-79
2022/10/18 09:32:10;;;;;;;10.43;2.08;;;14.10;99.90;;;;;;5048503;28;20068;-80
2022/10/18 09:34:49;;;;;;;9.07;1.50;;;14.10;99.90;;;;;;5052614;28;20032;-80
2022/10/18 09:37:18;;;;;;;10.13;1.83;;;14.10;99.90;;;;;;5054223;28;20087;-80
2022/10/18 09:39:46;;;;;;;11.85;1.75;;;14.20;99.90;;;;;;5051538;28;20385;-78
2022/10/18 09:42:27;;;;;;;12.00;2.15;;;14.20;99.90;;;;;;5053751;28;20024;-81
2022/10/18 09:45:00;;;;;;;6.82;2.30;;;14.40;99.90;;;;;;5052900;28;20919;-79
2022/10/18 09:47:33;;;;;;;11.40;2.10;;;14.50;99.90;;;;;;5050746;28;20025;-80
2022/10/18 09:50:25;;;;;;;10.48;2.00;;;14.60;99.90;;;;;;5064599;28;20025;-79
2022/10/18 09:53:17;;;;;;;5.38;1.65;;;14.70;99.90;;;;;;5053477;28;20457;-84
2022/10/18 09:56:00;;;;;;;13.48;2.08;;;14.70;99.90;;;;;;5054946;28;20032;-82
2022/10/18 09:58:45;;;;;;;15.10;1.77;;;14.80;99.90;;;;;;5055489;28;20037;-81
2022/10/18 10:01:22;;;;;;;8.23;1.92;;;14.90;99.90;;;;;;5059736;28;20093;-82
2022/10/18 10:03:48;;;;;;;7.13;2.20;;;14.90;99.90;;;;;;5063467;28;20060;-83
2022/10/18 10:06:37;;;;;;;5.28;1.40;;;15.00;99.90;;;;;;5071711;28;20021;-82
2022/10/18 10:09:13;;;;;;;7.90;1.88;;;15.00;99.90;;;;;;5073710;28;20021;-82
2022/10/18 10:11:44;;;;;;;9.07;1.80;;;15.10;99.90;;;;;;5075029;28;20020;-81
2022/10/18 10:14:16;;;;;;;5.82;1.63;;;14.70;99.90;;;;;;5073540;28;20120;-83
2022/10/18 10:16:57;;;;;;;8.65;1.80;;;15.30;99.90;;;;;;5063932;28;20021;-83
2022/10/18 10:19:34;;;;;;;6.15;1.25;;;15.40;99.90;;;;;;5059007;28;20052;-82
2022/10/18 10:22:04;;;;;;;9.77;1.70;;;15.40;99.90;;;;;;5053194;28;20104;-82
2022/10/18 10:24:41;;;;;;;7.20;1.45;;;15.50;99.90;;;;;;5050385;28;20435;-82
2022/10/18 10:27:28;;;;;;;7.80;1.50;;;15.70;99.90;;;;;;5048465;28;20020;-82
2022/10/18 10:29:56;;;;;;;7.45;1.63;;;15.70;99.90;;;;;;5054205;28;20040;-81
2022/10/18 10:32:25;;;;;;;7.70;1.88;;;15.90;99.90;;;;;;5053602;28;20033;-81
2022/10/18 10:34:51;;;;;;;7.05;1.52;;;16.00;99.90;;;;;;5052442;28;20029;-82
2022/10/18 10:37:28;;;;;;;4.50;1.92;;;16.00;99.90;;;;;;5053827;28;20104;-82
2022/10/18 10:40:17;;;;;;;5.55;1.50;;;16.00;99.90;;;;;;5056468;28;20128;-82
2022/10/18 10:43:14;;;;;;;5.88;1.55;;;16.00;99.90;;;;;;5053635;28;20032;-82
2022/10/18 10:45:56;;;;;;;8.27;1.42;;;16.00;99.90;;;;;;5052803;28;20044;-83
2022/10/18 10:48:23;;;;;;;4.97;1.95;;;16.10;99.90;;;;;;5052819;28;20109;-80
2022/10/18 10:50:59;;;;;;;13.38;1.83;;;16.20;99.90;;;;;;5053694;28;20420;-81
2022/10/18 10:53:31;;;;;;;7.50;1.55;;;16.10;99.90;;;;;;5053313;28;20078;-81
2022/10/18 10:55:58;;;;;;;3.90;1.15;;;16.20;99.90;;;;;;5056262;28;20036;-81
2022/10/18 10:58:32;;;;;;;7.40;1.75;;;16.20;99.90;;;;;;5057172;28;20020;-81
2022/10/18 11:01:21;;;;;;;6.50;1.60;;;16.30;99.90;;;;;;5059766;28;20075;-82
2022/10/18 11:03:49;;;;;;;12.25;1.55;;;16.50;99.90;;;;;;5049871;28;20032;-82
2022/10/18 11:06:52;;;;;;;9.40;1.80;;;16.50;99.90;;;;;;5056279;28;20096;-82
2022/10/18 11:09:31;;;;;;;4.18;1.30;;;16.60;99.90;;;;;;5054454;28;20029;-82
2022/10/18 11:12:04;;;;;;;12.65;2.40;;;16.70;99.90;;;;;;5053193;28;20032;-82
2022/10/18 11:14:36;;;;;;;7.75;1.65;;;16.80;99.90;;;;;;5051723;28;20558;-83
2022/10/18 11:17:09;;;;;;;8.95;1.95;;;16.90;99.90;;;;;;5052215;28;20485;-81
2022/10/18 11:19:54;;;;;;;12.45;1.90;;;16.90;99.90;;;;;;5053930;28;20127;-81
2022/10/18 11:22:24;;;;;;;4.35;1.35;;;17.00;99.90;;;;;;5054311;28;20022;-83
2022/10/18 11:24:50;;;;;;;4.82;1.35;;;17.00;99.90;;;;;;5053056;28;20021;-83
2022/10/18 11:27:25;;;;;;;4.25;1.17;;;17.00;99.90;;;;;;5050134;28;20033;-83
2022/10/18 11:30:16;;;;;;;5.22;1.25;;;17.10;99.90;;;;;;5054984;28;20035;-83
2022/10/18 11:33:14;;;;;;;4.70;1.42;;;17.10;99.90;;;;;;5054038;28;20036;-85
2022/10/18 11:35:46;;;;;;;7.57;1.63;;;17.10;99.90;;;;;;5052376;28;20493;-82
2022/10/18 11:38:53;;;;;;;2.63;1.20;;;17.10;99.90;;;;;;5069042;28;20116;-85
2022/10/18 11:41:33;;;;;;;10.80;2.35;;;17.20;99.90;;;;;;5056080;28;20041;-84
2022/10/18 11:44:02;;;;;;;7.40;1.50;;;17.30;99.90;;;;;;5059609;28;20029;-83
2022/10/18 11:46:36;;;;;;;8.13;1.50;;;17.30;99.90;;;;;;5058321;28;20021;-85
2022/10/18 11:49:13;;;;;;;5.22;1.77;;;17.30;99.90;;;;;;5059360;28;20051;-83
2022/10/18 11:51:56;;;;;;;16.50;1.88;;;17.40;99.90;;;;;;5055788;28;20105;-84
2022/10/18 11:54:56;;;;;;;9.88;1.73;;;17.40;99.90;;;;;;5057557;28;20025;-85
2022/10/18 11:57:53;;;;;;;8.03;2.20;;;17.40;99.90;;;;;;5056965;28;20021;-84
2022/10/18 12:00:30;;;;;;;9.77;1.73;;;17.40;99.90;;;;;;5057973;28;20347;-83
2022/10/18 12:03:01;;;;;;;7.00;1.60;;;17.50;99.90;;;;;;5051384;28;20581;-85
2022/10/18 12:05:28;;;;;;;8.88;1.60;;;17.50;99.90;;;;;;5048462;28;20029;-84
2022/10/18 12:08:12;;;;;;;6.72;1.40;;;17.60;99.90;;;;;;5054188;28;20036;-85
2022/10/18 12:10:41;;;;;;;7.40;1.02;;;17.60;99.90;;;;;;5053023;28;20044;-84
2022/10/18 12:13:28;;;;;;;5.93;1.40;;;17.70;99.90;;;;;;5055430;28;20025;-86
2022/10/18 12:15:54;;;;;;;6.35;1.33;;;17.70;99.90;;;;;;5054953;28;20028;-85
2022/10/18 12:18:24;;;;;;;8.48;1.77;;;17.70;99.90;;;;;;5051945;28;20045;-86
2022/10/18 12:20:54;;;;;;;4.43;1.52;;;17.70;99.90;;;;;;5057807;28;20060;-85
2022/10/18 12:23:29;;;;;;;5.63;1.60;;;17.70;99.90;;;;;;5049104;28;20355;-86
2022/10/18 12:26:00;;;;;;;7.18;1.33;;;17.70;99.90;;;;;;5051565;28;20061;-86
2022/10/18 12:28:48;;;;;;;3.92;1.35;;;17.80;99.90;;;;;;5048721;28;20025;-85
2022/10/18 12:31:29;;;;;;;6.90;2.13;;;17.90;99.90;;;;;;5054305;28;20033;-82
2022/10/18 12:34:14;;;;;;;4.15;1.52;;;18.00;99.90;;;;;;5051199;28;20025;-87
2022/10/18 12:37:18;;;;;;;11.38;1.65;;;18.00;99.90;;;;;;5057163;28;20021;-87
2022/10/18 12:39:51;;;;;;;4.55;1.48;;;18.00;99.90;;;;;;5026355;28;20404;-88
2022/10/18 12:42:18;;;;;;;6.18;1.80;;;18.00;99.90;;;;;;5058442;28;20103;-86
2022/10/18 12:44:45;;;;;;;4.78;1.10;;;18.00;99.90;;;;;;5069433;28;20406;-88
2022/10/18 12:47:21;;;;;;;5.32;1.27;;;18.00;99.90;;;;;;5061309;28;20048;-87
2022/10/18 12:49:57;;;;;;;5.32;1.42;;;18.10;99.90;;;;;;5069514;28;20025;-87
2022/10/18 12:52:27;;;;;;;10.43;1.60;;;18.10;99.90;;;;;;5046790;28;20075;-88
2022/10/18 12:55:17;;;;;;;5.50;0.95;;;18.20;99.90;;;;;;5070162;28;20090;-86
2022/10/18 12:57:51;;;;;;;4.78;1.20;;;18.20;99.90;;;;;;5057495;28;20028;-87
2022/10/18 13:00:29;;;;;;;10.50;1.00;;;18.30;99.90;;;;;;5058062;28;20045;-87
2022/10/18 13:03:15;;;;;;;7.10;1.50;;;18.20;99.90;;;;;;5059087;28;20021;-87